createdAt,value
2018-08-11T00:00:22.345Z,0.00
2018-08-11T00:01:22.331Z,0.00
2018-08-11T00:02:22.321Z,0.00
2018-08-11T00:03:22.335Z,0.00
2018-08-11T00:04:22.304Z,0.00
2018-08-11T00:05:22.283Z,0.00
2018-08-11T00:06:22.283Z,0.00
2018-08-11T00:07:22.319Z,0.00
2018-08-11T00:08:22.255Z,0.00
2018-08-11T00:09:22.278Z,0.00
2018-08-11T00:10:22.226Z,0.00
2018-08-11T00:11:22.253Z,0.00
2018-08-11T00:12:22.208Z,0.00
2018-08-11T00:13:22.192Z,0.00
2018-08-11T00:14:22.192Z,0.00
2018-08-11T00:15:22.173Z,0.00
2018-08-11T00:16:22.200Z,0.00
2018-08-11T00:17:22.151Z,0.00
2018-08-11T00:18:22.136Z,0.00
2018-08-11T00:19:22.141Z,0.00
2018-08-11T00:20:22.123Z,0.00
2018-08-11T00:21:22.138Z,0.00
2018-08-11T00:22:22.122Z,0.00
2018-08-11T00:23:22.109Z,0.00
2018-08-11T00:24:22.104Z,0.00
2018-08-11T00:25:22.071Z,0.00
2018-08-11T00:26:22.087Z,0.00
2018-08-11T00:27:22.072Z,0.00
2018-08-11T00:28:22.031Z,0.00
2018-08-11T00:29:22.025Z,0.00
2018-08-11T00:30:22.006Z,0.00
2018-08-11T00:31:22.037Z,0.00
2018-08-11T00:32:21.988Z,0.00
2018-08-11T00:33:21.983Z,0.00
2018-08-11T00:34:22.002Z,0.00
2018-08-11T00:35:21.953Z,0.00
2018-08-11T00:36:21.971Z,0.00
2018-08-11T00:37:21.953Z,0.00
2018-08-11T00:38:21.920Z,0.00
2018-08-11T00:39:21.927Z,0.00
2018-08-11T00:40:21.919Z,0.00
2018-08-11T00:41:21.888Z,0.00
2018-08-11T00:42:21.908Z,0.00
2018-08-11T00:43:21.867Z,0.00
2018-08-11T00:44:21.855Z,0.00
2018-08-11T00:45:21.847Z,0.00
2018-08-11T00:46:21.845Z,0.00
2018-08-11T00:47:21.849Z,0.00
2018-08-11T00:48:21.813Z,0.00
2018-08-11T00:49:21.866Z,0.00
2018-08-11T00:50:21.787Z,0.00
2018-08-11T00:51:21.788Z,0.00
2018-08-11T00:52:21.828Z,0.00
2018-08-11T00:53:21.753Z,0.00
2018-08-11T00:54:21.741Z,0.00
2018-08-11T00:55:21.784Z,0.00
2018-08-11T00:56:21.748Z,0.00
2018-08-11T00:57:21.754Z,0.00
2018-08-11T00:58:21.698Z,0.00
2018-08-11T00:59:21.720Z,0.00
2018-08-11T01:00:21.701Z,0.00
2018-08-11T01:01:21.666Z,0.00
2018-08-11T01:02:21.752Z,0.00
2018-08-11T01:03:21.772Z,0.00
2018-08-11T01:04:21.631Z,0.00
2018-08-11T01:05:21.621Z,0.00
2018-08-11T01:06:21.604Z,0.00
2018-08-11T01:07:21.641Z,0.00
2018-08-11T01:08:21.590Z,0.00
2018-08-11T01:09:21.578Z,0.00
2018-08-11T01:10:21.646Z,0.00
2018-08-11T01:11:21.560Z,0.00
2018-08-11T01:12:21.558Z,0.00
2018-08-11T01:13:21.589Z,0.00
2018-08-11T01:14:21.523Z,0.00
2018-08-11T01:15:21.548Z,0.00
2018-08-11T01:16:21.501Z,0.00
2018-08-11T01:17:21.489Z,0.00
2018-08-11T01:18:21.511Z,0.00
2018-08-11T01:19:21.468Z,0.00
2018-08-11T01:20:21.482Z,0.00
2018-08-11T01:21:21.451Z,0.00
2018-08-11T01:22:21.487Z,0.00
2018-08-11T01:23:21.457Z,0.00
2018-08-11T01:24:21.417Z,0.00
2018-08-11T01:25:21.431Z,0.00
2018-08-11T01:26:21.390Z,0.00
2018-08-11T01:27:21.413Z,0.00
2018-08-11T01:28:21.366Z,0.00
2018-08-11T01:29:21.356Z,0.00
2018-08-11T01:30:21.352Z,0.00
2018-08-11T01:31:21.368Z,0.00
2018-08-11T01:32:21.323Z,0.00
2018-08-11T01:33:21.327Z,0.00
2018-08-11T01:34:21.361Z,0.00
2018-08-11T01:35:21.301Z,0.00
2018-08-11T01:36:22.505Z,0.00
2018-08-11T01:37:21.288Z,0.00
2018-08-11T01:38:21.257Z,0.00
2018-08-11T01:39:21.273Z,0.00
2018-08-11T01:40:21.242Z,0.00
2018-08-11T01:41:21.228Z,0.00
2018-08-11T01:42:21.845Z,0.00
2018-08-11T01:43:21.211Z,0.00
2018-08-11T01:44:21.246Z,0.00
2018-08-11T01:45:21.180Z,0.00
2018-08-11T01:46:21.175Z,0.00
2018-08-11T01:47:21.161Z,0.00
2018-08-11T01:48:21.168Z,0.00
2018-08-11T01:49:21.165Z,0.00
2018-08-11T01:50:21.154Z,0.00
2018-08-11T01:51:21.110Z,0.00
2018-08-11T01:52:21.100Z,0.00
2018-08-11T01:53:21.123Z,0.00
2018-08-11T01:54:21.074Z,0.00
2018-08-11T01:55:21.067Z,0.00
2018-08-11T01:56:21.052Z,0.00
2018-08-11T01:57:21.042Z,0.00
2018-08-11T01:58:21.060Z,0.00
2018-08-11T01:59:21.036Z,0.00
2018-08-11T02:00:21.012Z,0.00
2018-08-11T02:01:20.997Z,0.00
2018-08-11T02:02:21.057Z,0.00
2018-08-11T02:03:20.985Z,0.00
2018-08-11T02:04:20.967Z,0.00
2018-08-11T02:05:20.995Z,0.00
2018-08-11T02:07:10.597Z,0.00
2018-08-11T02:08:10.583Z,0.00
2018-08-11T02:09:10.575Z,0.00
2018-08-11T02:10:10.564Z,0.00
2018-08-11T02:11:10.591Z,0.00
2018-08-11T02:12:10.536Z,0.00
2018-08-11T02:13:10.555Z,0.00
2018-08-11T02:14:10.526Z,0.00
2018-08-11T02:15:10.506Z,0.00
2018-08-11T02:16:10.494Z,0.00
2018-08-11T02:17:10.514Z,0.00
2018-08-11T02:18:10.512Z,0.00
2018-08-11T02:19:10.461Z,0.00
2018-08-11T02:20:10.446Z,0.00
2018-08-11T02:21:10.437Z,0.00
2018-08-11T02:22:10.505Z,0.00
2018-08-11T02:23:10.443Z,0.00
2018-08-11T02:24:10.402Z,0.00
2018-08-11T02:25:10.399Z,0.00
2018-08-11T02:26:10.412Z,0.00
2018-08-11T02:27:10.373Z,0.00
2018-08-11T02:28:10.398Z,0.00
2018-08-11T02:29:10.349Z,0.00
2018-08-11T02:30:10.337Z,0.00
2018-08-11T02:31:10.324Z,0.00
2018-08-11T02:32:10.324Z,0.00
2018-08-11T02:33:10.354Z,0.00
2018-08-11T02:34:10.324Z,0.00
2018-08-11T02:35:10.282Z,0.00
2018-08-11T02:36:11.260Z,0.00
2018-08-11T02:37:10.256Z,0.00
2018-08-11T02:38:11.259Z,0.00
2018-08-11T02:39:10.238Z,0.00
2018-08-11T02:40:10.227Z,0.00
2018-08-11T02:41:10.250Z,0.00
2018-08-11T02:42:10.206Z,0.00
2018-08-11T02:43:10.233Z,0.00
2018-08-11T02:44:10.184Z,0.00
2018-08-11T02:45:10.171Z,0.00
2018-08-11T02:46:10.152Z,0.00
2018-08-11T02:47:10.145Z,0.00
2018-08-11T02:48:10.157Z,0.00
2018-08-11T02:49:10.117Z,0.00
2018-08-11T02:50:10.115Z,0.00
2018-08-11T02:51:10.132Z,0.00
2018-08-11T02:52:10.085Z,0.00
2018-08-11T02:53:10.075Z,0.00
2018-08-11T02:54:10.065Z,0.00
2018-08-11T02:55:10.050Z,0.00
2018-08-11T02:56:10.080Z,0.00
2018-08-11T02:57:10.028Z,0.00
2018-08-11T02:58:10.049Z,0.00
2018-08-11T02:59:10.025Z,0.00
2018-08-11T03:00:10.058Z,0.00
2018-08-11T03:01:10.022Z,0.00
2018-08-11T03:02:09.973Z,0.00
2018-08-11T03:03:09.965Z,0.00
2018-08-11T03:04:09.963Z,0.00
2018-08-11T03:05:09.981Z,0.00
2018-08-11T03:06:09.967Z,0.00
2018-08-11T03:07:09.915Z,0.00
2018-08-11T03:08:09.917Z,0.00
2018-08-11T03:09:09.896Z,0.00
2018-08-11T03:10:09.887Z,0.00
2018-08-11T03:11:09.908Z,0.00
2018-08-11T03:12:09.865Z,0.00
2018-08-11T03:13:09.847Z,0.00
2018-08-11T03:14:09.957Z,0.00
2018-08-11T03:15:09.828Z,0.00
2018-08-11T03:16:09.875Z,0.00
2018-08-11T03:17:09.804Z,0.00
2018-08-11T03:18:09.789Z,0.00
2018-08-11T03:19:09.776Z,0.00
2018-08-11T03:20:09.777Z,0.00
2018-08-11T03:21:09.867Z,0.00
2018-08-11T03:22:09.747Z,0.00
2018-08-11T03:23:09.735Z,0.00
2018-08-11T03:24:09.730Z,0.00
2018-08-11T03:25:09.716Z,0.00
2018-08-11T03:26:09.731Z,0.00
2018-08-11T03:27:09.731Z,0.00
2018-08-11T03:28:09.678Z,0.00
2018-08-11T03:29:09.665Z,0.00
2018-08-11T03:30:09.702Z,0.00
2018-08-11T03:31:09.644Z,0.00
2018-08-11T03:32:09.660Z,0.00
2018-08-11T03:33:09.658Z,0.00
2018-08-11T03:34:09.605Z,0.00
2018-08-11T03:35:09.600Z,0.00
2018-08-11T03:36:09.589Z,0.00
2018-08-11T03:37:09.582Z,0.00
2018-08-11T03:38:09.591Z,0.00
2018-08-11T03:39:09.583Z,0.00
2018-08-11T03:40:09.547Z,0.00
2018-08-11T03:41:09.535Z,0.00
2018-08-11T03:42:09.525Z,0.00
2018-08-11T03:43:09.509Z,0.00
2018-08-11T03:44:09.524Z,0.00
2018-08-11T03:45:09.525Z,0.00
2018-08-11T03:46:09.547Z,4.00
2018-08-11T03:47:09.461Z,4.00
2018-08-11T03:48:09.448Z,4.00
2018-08-11T03:49:09.443Z,0.00
2018-08-11T03:50:09.475Z,4.00
2018-08-11T03:51:09.421Z,4.00
2018-08-11T03:52:09.408Z,4.00
2018-08-11T03:53:09.400Z,8.00
2018-08-11T03:54:09.386Z,4.00
2018-08-11T03:55:09.432Z,8.00
2018-08-11T03:56:09.363Z,8.00
2018-08-11T03:57:09.348Z,8.00
2018-08-11T03:58:09.343Z,8.00
2018-08-11T03:59:09.341Z,12.00
2018-08-11T04:00:09.356Z,16.00
2018-08-11T04:01:09.327Z,12.00
2018-08-11T04:02:09.298Z,16.00
2018-08-11T04:03:09.289Z,20.00
2018-08-11T04:04:09.275Z,20.00
2018-08-11T04:05:09.312Z,20.00
2018-08-11T04:06:09.251Z,20.00
2018-08-11T04:07:09.236Z,24.00
2018-08-11T04:08:09.228Z,24.00
2018-08-11T04:09:09.232Z,28.00
2018-08-11T04:10:09.243Z,40.00
2018-08-11T04:11:09.207Z,40.00
2018-08-11T04:12:09.178Z,48.00
2018-08-11T04:13:09.173Z,48.00
2018-08-11T04:14:09.163Z,52.00
2018-08-11T04:15:09.182Z,52.00
2018-08-11T04:16:09.148Z,64.00
2018-08-11T04:17:09.270Z,68.00
2018-08-11T04:18:09.113Z,72.00
2018-08-11T04:19:09.101Z,76.00
2018-08-11T04:20:09.098Z,84.00
2018-08-11T04:21:09.080Z,96.00
2018-08-11T04:22:09.098Z,92.00
2018-08-11T04:23:09.098Z,104.00
2018-08-11T04:24:09.046Z,108.00
2018-08-11T04:25:09.038Z,116.00
2018-08-11T04:26:09.073Z,124.00
2018-08-11T04:27:09.010Z,132.00
2018-08-11T04:28:09.066Z,148.00
2018-08-11T04:29:08.995Z,136.00
2018-08-11T04:30:08.983Z,156.00
2018-08-11T04:31:08.993Z,164.00
2018-08-11T04:32:08.997Z,176.00
2018-08-11T04:33:08.993Z,172.00
2018-08-11T04:34:08.948Z,184.00
2018-08-11T04:35:08.952Z,184.00
2018-08-11T04:36:08.910Z,208.00
2018-08-11T04:37:08.928Z,192.00
2018-08-11T04:38:08.900Z,240.00
2018-08-11T04:39:08.878Z,220.00
2018-08-11T04:40:08.889Z,228.00
2018-08-11T04:41:09.329Z,296.00
2018-08-11T04:42:08.880Z,236.00
2018-08-11T04:43:08.845Z,232.00
2018-08-11T04:44:08.878Z,228.00
2018-08-11T04:45:08.852Z,228.00
2018-08-11T04:46:08.801Z,284.00
2018-08-11T04:47:08.781Z,276.00
2018-08-11T04:48:08.772Z,308.00
2018-08-11T04:49:08.762Z,412.00
2018-08-11T04:50:08.802Z,400.00
2018-08-11T04:51:08.743Z,356.00
2018-08-11T04:52:08.731Z,380.00
2018-08-11T04:53:08.750Z,500.00
2018-08-11T04:54:08.707Z,452.00
2018-08-11T04:55:08.701Z,480.00
2018-08-11T04:56:08.686Z,656.00
2018-08-11T04:57:08.672Z,612.00
2018-08-11T04:58:08.714Z,432.00
2018-08-11T04:59:08.648Z,464.00
2018-08-11T05:00:08.725Z,448.00
2018-08-11T05:01:08.633Z,484.00
2018-08-11T05:02:08.615Z,420.00
2018-08-11T05:03:08.636Z,572.00
2018-08-11T05:04:08.598Z,620.00
2018-08-11T05:05:08.616Z,444.00
2018-08-11T05:06:08.579Z,672.00
2018-08-11T05:07:08.582Z,480.00
2018-08-11T05:08:08.555Z,620.00
2018-08-11T05:09:08.574Z,524.00
2018-08-11T05:10:08.523Z,780.00
2018-08-11T05:11:08.513Z,708.00
2018-08-11T05:12:08.527Z,616.00
2018-08-11T05:13:08.491Z,688.00
2018-08-11T05:14:08.484Z,884.00
2018-08-11T05:15:08.505Z,756.00
2018-08-11T05:16:08.456Z,652.00
2018-08-11T05:17:08.447Z,720.00
2018-08-11T05:18:08.434Z,664.00
2018-08-11T05:19:08.452Z,812.00
2018-08-11T05:20:08.411Z,656.00
2018-08-11T05:21:08.420Z,780.00
2018-08-11T05:22:08.427Z,864.00
2018-08-11T05:23:08.379Z,816.00
2018-08-11T05:24:08.385Z,932.00
2018-08-11T05:25:08.358Z,1008.00
2018-08-11T05:26:08.355Z,716.00
2018-08-11T05:27:08.362Z,772.00
2018-08-11T05:28:08.332Z,716.00
2018-08-11T05:29:08.320Z,1132.00
2018-08-11T05:30:08.331Z,960.00
2018-08-11T05:31:08.298Z,1036.00
2018-08-11T05:32:08.303Z,1084.00
2018-08-11T05:33:08.309Z,1028.00
2018-08-11T05:34:08.292Z,928.00
2018-08-11T05:35:08.249Z,1428.00
2018-08-11T05:36:08.272Z,1440.00
2018-08-11T05:37:08.221Z,1192.00
2018-08-11T05:38:08.209Z,1200.00
2018-08-11T05:39:08.195Z,1096.00
2018-08-11T05:40:08.192Z,1340.00
2018-08-11T05:41:08.210Z,788.00
2018-08-11T05:42:08.166Z,696.00
2018-08-11T05:43:08.183Z,952.00
2018-08-11T05:44:08.178Z,748.00
2018-08-11T05:45:08.131Z,820.00
2018-08-11T05:46:08.116Z,568.00
2018-08-11T05:47:08.113Z,664.00
2018-08-11T05:48:08.096Z,584.00
2018-08-11T05:49:08.208Z,632.00
2018-08-11T05:50:08.112Z,992.00
2018-08-11T05:51:08.063Z,828.00
2018-08-11T05:52:08.054Z,1088.00
2018-08-11T05:53:08.048Z,1120.00
2018-08-11T05:54:08.061Z,904.00
2018-08-11T05:55:08.026Z,960.00
2018-08-11T05:56:08.006Z,1320.00
2018-08-11T05:57:07.992Z,760.00
2018-08-11T05:58:13.370Z,856.00
2018-08-11T05:59:08.023Z,1112.00
2018-08-11T06:00:07.962Z,1752.00
2018-08-11T06:01:07.948Z,1628.00
2018-08-11T06:02:07.935Z,804.00
2018-08-11T06:03:07.956Z,944.00
2018-08-11T06:04:08.013Z,1312.00
2018-08-11T06:05:07.910Z,1544.00
2018-08-11T06:06:07.896Z,1896.00
2018-08-11T06:07:07.887Z,1400.00
2018-08-11T06:08:07.904Z,868.00
2018-08-11T06:09:07.863Z,708.00
2018-08-11T06:10:07.944Z,896.00
2018-08-11T06:11:07.881Z,1652.00
2018-08-11T06:12:07.906Z,1484.00
2018-08-11T06:13:07.998Z,1696.00
2018-08-11T06:14:07.891Z,1696.00
2018-08-11T06:15:07.854Z,940.00
2018-08-11T06:16:07.829Z,832.00
2018-08-11T06:17:08.499Z,1100.00
2018-08-11T06:18:07.906Z,996.00
2018-08-11T06:19:07.813Z,1524.00
2018-08-11T06:20:07.799Z,1640.00
2018-08-11T06:21:07.827Z,1072.00
2018-08-11T06:22:07.813Z,1068.00
2018-08-11T06:23:07.783Z,1168.00
2018-08-11T06:24:07.903Z,1240.00
2018-08-11T06:25:07.763Z,1428.00
2018-08-11T06:26:07.748Z,704.00
2018-08-11T06:27:07.767Z,848.00
2018-08-11T06:28:07.733Z,868.00
2018-08-11T06:29:07.796Z,1524.00
2018-08-11T06:30:07.624Z,1464.00
2018-08-11T06:31:07.620Z,828.00
2018-08-11T06:32:07.701Z,668.00
2018-08-11T06:33:07.637Z,796.00
2018-08-11T06:34:07.615Z,928.00
2018-08-11T06:35:07.568Z,1296.00
2018-08-11T06:36:07.559Z,812.00
2018-08-11T06:37:07.548Z,768.00
2018-08-11T06:38:07.557Z,1056.00
2018-08-11T06:39:07.575Z,1036.00
2018-08-11T06:40:07.549Z,768.00
2018-08-11T06:41:07.507Z,988.00
2018-08-11T06:42:07.494Z,832.00
2018-08-11T06:43:07.485Z,892.00
2018-08-11T06:44:07.472Z,804.00
2018-08-11T06:45:07.485Z,824.00
2018-08-11T06:46:07.446Z,840.00
2018-08-11T06:47:07.533Z,800.00
2018-08-11T06:48:07.426Z,864.00
2018-08-11T06:49:07.418Z,1016.00
2018-08-11T06:50:07.445Z,904.00
2018-08-11T06:51:07.388Z,924.00
2018-08-11T06:52:07.396Z,1220.00
2018-08-11T06:53:07.367Z,1100.00
2018-08-11T06:54:07.413Z,1372.00
2018-08-11T06:55:07.379Z,1272.00
2018-08-11T06:56:07.370Z,864.00
2018-08-11T06:57:07.324Z,848.00
2018-08-11T06:58:07.313Z,1600.00
2018-08-11T06:59:07.301Z,900.00
2018-08-11T07:00:07.292Z,980.00
2018-08-11T07:01:07.311Z,1276.00
2018-08-11T07:02:07.272Z,2824.00
2018-08-11T07:03:07.292Z,1160.00
2018-08-11T07:04:07.298Z,808.00
2018-08-11T07:05:07.239Z,660.00
2018-08-11T07:06:07.253Z,668.00
2018-08-11T07:07:07.214Z,896.00
2018-08-11T07:08:07.201Z,1008.00
2018-08-11T07:09:07.196Z,872.00
2018-08-11T07:10:07.186Z,1508.00
2018-08-11T07:11:07.200Z,1692.00
2018-08-11T07:12:07.162Z,1132.00
2018-08-11T07:13:07.154Z,1236.00
2018-08-11T07:14:07.138Z,1020.00
2018-08-11T07:15:07.132Z,676.00
2018-08-11T07:16:07.110Z,936.00
2018-08-11T07:17:07.133Z,932.00
2018-08-11T07:18:07.089Z,2124.00
2018-08-11T07:19:07.114Z,1404.00
2018-08-11T07:20:07.066Z,664.00
2018-08-11T07:21:07.061Z,844.00
2018-08-11T07:22:07.067Z,696.00
2018-08-11T07:23:07.036Z,788.00
2018-08-11T07:24:07.022Z,892.00
2018-08-11T07:25:07.010Z,1176.00
2018-08-11T07:26:06.994Z,1352.00
2018-08-11T07:27:07.013Z,1040.00
2018-08-11T07:28:06.976Z,880.00
2018-08-11T07:29:06.962Z,924.00
2018-08-11T07:30:06.993Z,1020.00
2018-08-11T07:31:06.938Z,892.00
2018-08-11T07:32:06.959Z,1092.00
2018-08-11T07:33:07.853Z,1576.00
2018-08-11T07:34:06.909Z,1064.00
2018-08-11T07:35:07.819Z,956.00
2018-08-11T07:36:06.977Z,848.00
2018-08-11T07:37:06.874Z,876.00
2018-08-11T07:38:06.891Z,1208.00
2018-08-11T07:39:06.852Z,1736.00
2018-08-11T07:40:07.829Z,1820.00
2018-08-11T07:41:06.832Z,896.00
2018-08-11T07:42:06.821Z,1512.00
2018-08-11T07:43:06.844Z,2364.00
2018-08-11T07:44:06.799Z,2176.00
2018-08-11T07:45:06.785Z,1628.00
2018-08-11T07:46:06.777Z,1116.00
2018-08-11T07:47:06.768Z,1296.00
2018-08-11T07:48:06.796Z,920.00
2018-08-11T07:49:06.767Z,1252.00
2018-08-11T07:50:06.734Z,1356.00
2018-08-11T07:51:06.725Z,1416.00
2018-08-11T07:52:06.708Z,1132.00
2018-08-11T07:53:06.703Z,992.00
2018-08-11T07:54:06.733Z,1236.00
2018-08-11T07:55:06.676Z,1540.00
2018-08-11T07:56:06.746Z,1192.00
2018-08-11T07:57:06.654Z,896.00
2018-08-11T07:58:06.646Z,1532.00
2018-08-11T07:59:06.734Z,1176.00
2018-08-11T08:00:06.639Z,956.00
2018-08-11T08:01:06.613Z,960.00
2018-08-11T08:02:06.628Z,1224.00
2018-08-11T08:03:06.586Z,884.00
2018-08-11T08:04:06.578Z,1088.00
2018-08-11T08:05:06.589Z,860.00
2018-08-11T08:06:06.557Z,984.00
2018-08-11T08:07:13.866Z,1180.00
2018-08-11T08:08:06.642Z,1144.00
2018-08-11T08:09:06.520Z,1032.00
2018-08-11T08:10:06.551Z,1580.00
2018-08-11T08:11:06.546Z,2328.00
2018-08-11T08:12:06.496Z,1700.00
2018-08-11T08:13:06.515Z,1424.00
2018-08-11T08:14:06.507Z,1864.00
2018-08-11T08:15:06.455Z,1992.00
2018-08-11T08:16:06.472Z,1208.00
2018-08-11T08:17:06.429Z,908.00
2018-08-11T08:18:06.419Z,1532.00
2018-08-11T08:19:06.441Z,1532.00
2018-08-11T08:20:06.398Z,1344.00
2018-08-11T08:21:06.388Z,864.00
2018-08-11T08:22:06.384Z,1024.00
2018-08-11T08:23:06.360Z,1312.00
2018-08-11T08:24:06.390Z,1848.00
2018-08-11T08:25:06.341Z,2012.00
2018-08-11T08:26:06.360Z,1716.00
2018-08-11T08:27:06.320Z,1668.00
2018-08-11T08:28:06.335Z,2476.00
2018-08-11T08:29:06.294Z,2352.00
2018-08-11T08:30:06.282Z,3252.00
2018-08-11T08:31:06.287Z,2452.00
2018-08-11T08:32:06.261Z,1248.00
2018-08-11T08:33:06.280Z,1488.00
2018-08-11T08:34:06.250Z,1680.00
2018-08-11T08:35:06.278Z,3004.00
2018-08-11T08:36:06.243Z,1712.00
2018-08-11T08:37:06.201Z,1192.00
2018-08-11T08:38:06.193Z,1856.00
2018-08-11T08:39:06.183Z,1792.00
2018-08-11T08:40:06.229Z,1500.00
2018-08-11T08:41:06.154Z,2972.00
2018-08-11T08:42:06.145Z,3232.00
2018-08-11T08:43:06.166Z,2112.00
2018-08-11T08:44:06.170Z,1656.00
2018-08-11T08:45:06.113Z,1888.00
2018-08-11T08:46:06.097Z,2132.00
2018-08-11T08:47:06.132Z,2220.00
2018-08-11T08:48:06.121Z,1760.00
2018-08-11T08:49:06.077Z,2236.00
2018-08-11T08:50:06.055Z,3244.00
2018-08-11T08:51:06.039Z,3252.00
2018-08-11T08:52:06.066Z,2468.00
2018-08-11T08:53:06.085Z,2380.00
2018-08-11T08:54:06.013Z,3060.00
2018-08-11T08:55:06.088Z,3316.00
2018-08-11T08:56:05.988Z,1836.00
2018-08-11T08:57:05.976Z,1280.00
2018-08-11T08:58:06.005Z,1824.00
2018-08-11T08:59:05.995Z,3044.00
2018-08-11T09:00:05.974Z,4988.00
2018-08-11T09:01:05.929Z,4196.00
2018-08-11T09:02:05.928Z,3200.00
2018-08-11T09:03:05.947Z,3528.00
2018-08-11T09:04:05.935Z,3572.00
2018-08-11T09:05:05.886Z,2188.00
2018-08-11T09:06:05.881Z,3648.00
2018-08-11T09:07:05.867Z,3148.00
2018-08-11T09:08:05.856Z,3336.00
2018-08-11T09:09:05.888Z,3988.00
2018-08-11T09:10:05.831Z,4316.00
2018-08-11T09:11:05.959Z,3212.00
2018-08-11T09:12:05.939Z,2800.00
2018-08-11T09:13:05.797Z,2428.00
2018-08-11T09:14:05.818Z,2800.00
2018-08-11T09:15:05.818Z,3456.00
2018-08-11T09:16:05.766Z,2076.00
2018-08-11T09:17:05.777Z,1752.00
2018-08-11T09:18:05.748Z,1288.00
2018-08-11T09:19:05.735Z,1492.00
2018-08-11T09:20:05.717Z,2300.00
2018-08-11T09:21:05.738Z,3496.00
2018-08-11T09:22:05.703Z,3852.00
2018-08-11T09:23:05.688Z,3076.00
2018-08-11T09:24:05.699Z,2820.00
2018-08-11T09:25:05.662Z,3356.00
2018-08-11T09:26:05.673Z,2772.00
2018-08-11T09:27:05.643Z,2136.00
2018-08-11T09:28:05.639Z,2424.00
2018-08-11T09:29:05.703Z,1792.00
2018-08-11T09:30:05.608Z,2032.00
2018-08-11T09:31:05.596Z,2008.00
2018-08-11T09:32:05.584Z,1480.00
2018-08-11T09:33:05.571Z,1316.00
2018-08-11T09:34:05.592Z,1280.00
2018-08-11T09:35:05.557Z,2332.00
2018-08-11T09:36:05.541Z,2508.00
2018-08-11T09:37:05.529Z,2780.00
2018-08-11T09:38:05.524Z,3692.00
2018-08-11T09:39:05.546Z,2540.00
2018-08-11T09:40:05.493Z,1700.00
2018-08-11T09:41:05.491Z,2500.00
2018-08-11T09:42:05.469Z,1600.00
2018-08-11T09:43:05.466Z,2348.00
2018-08-11T09:44:05.483Z,3044.00
2018-08-11T09:45:05.439Z,3852.00
2018-08-11T09:46:05.469Z,3436.00
2018-08-11T09:47:05.417Z,4216.00
2018-08-11T09:48:05.406Z,3308.00
2018-08-11T09:49:05.429Z,2752.00
2018-08-11T09:50:05.384Z,3432.00
2018-08-11T09:51:05.408Z,4576.00
2018-08-11T09:52:05.363Z,6508.00
2018-08-11T09:53:05.377Z,5660.00
2018-08-11T09:54:05.332Z,3552.00
2018-08-11T09:55:05.322Z,2596.00
2018-08-11T09:56:05.317Z,2420.00
2018-08-11T09:57:05.331Z,2200.00
2018-08-11T09:58:05.292Z,2612.00
2018-08-11T09:59:05.278Z,3352.00
2018-08-11T10:00:05.302Z,4184.00
2018-08-11T10:01:05.264Z,4148.00
2018-08-11T10:02:05.244Z,4656.00
2018-08-11T10:03:05.235Z,4188.00
2018-08-11T10:04:05.261Z,3764.00
2018-08-11T10:05:05.219Z,2704.00
2018-08-11T10:06:05.200Z,2024.00
2018-08-11T10:07:05.195Z,1632.00
2018-08-11T10:08:05.217Z,1860.00
2018-08-11T10:09:05.166Z,1448.00
2018-08-11T10:10:05.164Z,1608.00
2018-08-11T10:11:05.149Z,1924.00
2018-08-11T10:12:05.133Z,2832.00
2018-08-11T10:13:05.159Z,3540.00
2018-08-11T10:14:05.143Z,2512.00
2018-08-11T10:15:05.117Z,1928.00
2018-08-11T10:16:05.091Z,2288.00
2018-08-11T10:17:05.080Z,2396.00
2018-08-11T10:18:05.065Z,1988.00
2018-08-11T10:19:05.075Z,2048.00
2018-08-11T10:20:05.044Z,2036.00
2018-08-11T10:21:05.028Z,2072.00
2018-08-11T10:22:05.024Z,2420.00
2018-08-11T10:23:05.049Z,2400.00
2018-08-11T10:24:05.002Z,2540.00
2018-08-11T10:25:05.004Z,3452.00
2018-08-11T10:26:05.007Z,4104.00
2018-08-11T10:27:04.966Z,4016.00
2018-08-11T10:28:04.965Z,3932.00
2018-08-11T10:29:04.972Z,3396.00
2018-08-11T10:30:04.958Z,3276.00
2018-08-11T10:31:05.014Z,3032.00
2018-08-11T10:32:04.912Z,3236.00
2018-08-11T10:33:04.934Z,2380.00
2018-08-11T10:34:04.889Z,1524.00
2018-08-11T10:35:04.903Z,1300.00
2018-08-11T10:36:04.867Z,1364.00
2018-08-11T10:37:04.927Z,1808.00
2018-08-11T10:38:04.854Z,1736.00
2018-08-11T10:39:04.867Z,2024.00
2018-08-11T10:40:04.867Z,2044.00
2018-08-11T10:41:04.840Z,2280.00
2018-08-11T10:42:04.801Z,2300.00
2018-08-11T10:43:04.791Z,2632.00
2018-08-11T10:44:04.781Z,3192.00
2018-08-11T10:45:04.811Z,3184.00
2018-08-11T10:46:04.763Z,3188.00
2018-08-11T10:47:04.844Z,2624.00
2018-08-11T10:48:04.737Z,2832.00
2018-08-11T10:49:04.725Z,2636.00
2018-08-11T10:50:04.749Z,2564.00
2018-08-11T10:51:04.746Z,3188.00
2018-08-11T10:52:04.693Z,4436.00
2018-08-11T10:53:04.684Z,4852.00
2018-08-11T10:54:04.666Z,5352.00
2018-08-11T10:55:04.689Z,6012.00
2018-08-11T10:56:04.672Z,4420.00
2018-08-11T10:57:04.635Z,3856.00
2018-08-11T10:58:04.639Z,3844.00
2018-08-11T10:59:04.623Z,3152.00
2018-08-11T11:00:04.632Z,2936.00
2018-08-11T11:01:04.590Z,3516.00
2018-08-11T11:02:04.622Z,3744.00
2018-08-11T11:03:04.596Z,4632.00
2018-08-11T11:04:04.559Z,4588.00
2018-08-11T11:05:04.567Z,4800.00
2018-08-11T11:06:04.532Z,4852.00
2018-08-11T11:07:04.519Z,4472.00
2018-08-11T11:08:04.538Z,3736.00
2018-08-11T11:09:05.390Z,3468.00
2018-08-11T11:10:04.532Z,3532.00
2018-08-11T11:11:04.479Z,3228.00
2018-08-11T11:12:04.467Z,3588.00
2018-08-11T11:13:04.455Z,3696.00
2018-08-11T11:14:04.449Z,4228.00
2018-08-11T11:15:04.464Z,4812.00
2018-08-11T11:16:04.425Z,4924.00
2018-08-11T11:17:04.412Z,4064.00
2018-08-11T11:18:04.405Z,3404.00
2018-08-11T11:19:04.424Z,2640.00
2018-08-11T11:20:04.412Z,2508.00
2018-08-11T11:21:04.367Z,2308.00
2018-08-11T11:22:04.412Z,2456.00
2018-08-11T11:23:04.344Z,2752.00
2018-08-11T11:24:04.333Z,3244.00
2018-08-11T11:25:04.358Z,3548.00
2018-08-11T11:26:04.311Z,3336.00
2018-08-11T11:27:04.328Z,3180.00
2018-08-11T11:28:04.288Z,2844.00
2018-08-11T11:29:04.341Z,3012.00
2018-08-11T11:30:04.354Z,3344.00
2018-08-11T11:31:04.251Z,3312.00
2018-08-11T11:32:04.242Z,3788.00
2018-08-11T11:33:04.229Z,4004.00
2018-08-11T11:34:04.248Z,4408.00
2018-08-11T11:35:04.207Z,4752.00
2018-08-11T11:36:04.229Z,4864.00
2018-08-11T11:37:04.189Z,4388.00
2018-08-11T11:38:04.179Z,4152.00
2018-08-11T11:39:04.162Z,4204.00
2018-08-11T11:40:04.195Z,4420.00
2018-08-11T11:41:04.138Z,4324.00
2018-08-11T11:42:04.132Z,3980.00
2018-08-11T11:43:04.123Z,3848.00
2018-08-11T11:44:04.106Z,4384.00
2018-08-11T11:45:04.133Z,4640.00
2018-08-11T11:46:04.120Z,5104.00
2018-08-11T11:47:04.073Z,5248.00
2018-08-11T11:48:04.060Z,4928.00
2018-08-11T11:49:04.045Z,5192.00
2018-08-11T11:50:04.066Z,5848.00
2018-08-11T11:51:04.028Z,6440.00
2018-08-11T11:52:04.012Z,6860.00
2018-08-11T11:53:04.002Z,5904.00
2018-08-11T11:54:03.990Z,5324.00
2018-08-11T11:55:04.019Z,5084.00
2018-08-11T11:56:03.970Z,4672.00
2018-08-11T11:57:03.967Z,4116.00
2018-08-11T11:58:03.947Z,3844.00
2018-08-11T11:59:03.938Z,3740.00
2018-08-11T12:00:04.080Z,3888.00
2018-08-11T12:01:03.924Z,3876.00
2018-08-11T12:02:04.005Z,4140.00
2018-08-11T12:03:03.891Z,4164.00
2018-08-11T12:04:03.915Z,3776.00
2018-08-11T12:05:03.873Z,3424.00
2018-08-11T12:06:03.887Z,3008.00
2018-08-11T12:07:03.927Z,3540.00
2018-08-11T12:08:03.849Z,3864.00
2018-08-11T12:09:03.838Z,4048.00
2018-08-11T12:10:03.817Z,4220.00
2018-08-11T12:11:03.845Z,4640.00
2018-08-11T12:12:03.836Z,4824.00
2018-08-11T12:13:03.782Z,4624.00
2018-08-11T12:14:03.772Z,4796.00
2018-08-11T12:15:03.756Z,5100.00
2018-08-11T12:16:03.778Z,5564.00
2018-08-11T12:17:03.771Z,5404.00
2018-08-11T12:18:03.727Z,4984.00
2018-08-11T12:19:03.722Z,4744.00
2018-08-11T12:20:03.709Z,5252.00
2018-08-11T12:21:03.696Z,5144.00
2018-08-11T12:22:03.723Z,5312.00
2018-08-11T12:23:03.749Z,6352.00
2018-08-11T12:24:03.664Z,6888.00
2018-08-11T12:25:03.667Z,7056.00
2018-08-11T12:26:03.650Z,5776.00
2018-08-11T12:27:03.622Z,5512.00
2018-08-11T12:28:03.627Z,6276.00
2018-08-11T12:29:03.643Z,6568.00
2018-08-11T12:30:03.593Z,6520.00
2018-08-11T12:31:03.638Z,5048.00
2018-08-11T12:32:03.571Z,4748.00
2018-08-11T12:33:03.556Z,4520.00
2018-08-11T12:34:03.548Z,6248.00